Hlavní strana
METAR-TAF:

METAR-TAF

Letiště :

Springfield-Beckley Municipal Airport

Springfield, Ohio, Spojené státy americké

zeměpisná šířka: 39-50N, zeměpisná délka: 083-50W, výška: 321 m

Aktuální stav počasí

Zpráva byla vytvořena před 34 minutami, v 01:56 UTC
Bezvětří
Teplota 4°C
Vlhkost vzduchu 93%
Tlak 1013 hPa
Viditelnost: 16.1 km
Skoro jasno ve výšce 7000 ft
Zataženo ve výšce 8000 ft

METAR: KSGH 200156Z AUTO 00000KT 10SM FEW070 OVC080 04/03 A2992 RMK AO2 SLP141 T00390028 PNO $

Čas: 21:30 (02:30 UTC)


TAF: chybějící

Stav a předpovědi počasí z více než 4 000 letišť (zprávy METAR a TAF).

Červené a žluté tečky na mapě představují dostupné meteorologické stanice.

Když kurzor umístíte na tečku, zobrazí se název stanice.

Pak kliknutím zobrazíte stav a předpověď počasí.

Chcete-li změnit mapu, kliknutím na zelené tlačítko se znaménkem +mapu přiblížíte, kliknutím na zelené tlačítko se znaménkem – mapu oddálíte a kliknutím na zelené šipky přejdete na sousední mapy.


METAR-TAF: